Time;durP1;ratioP1;P1;durP2;ratioP2;P2;SDS_P1;SDS_P2;PMS_P1;PMS_P2;Temp;Humidity;BMP_temperature;BMP_pressure;BME280_temperature;BME280_humidity;BME280_pressure;Samples;Min_cycle;Max_cycle;Signal;HPM_P1;HPM_P2
2023/03/22 00:02:11;;;;;;;4.78;2.22;;;9.10;99.90;;;;;;5132838;27;20027;-68
2023/03/22 00:04:36;;;;;;;4.47;2.42;;;9.10;99.90;;;;;;5133035;27;20492;-68
2023/03/22 00:07:02;;;;;;;4.25;2.10;;;9.00;99.90;;;;;;5131362;27;20027;-68
2023/03/22 00:09:27;;;;;;;3.25;2.40;;;9.00;99.90;;;;;;5144249;27;20109;-69
2023/03/22 00:11:53;;;;;;;3.25;2.08;;;9.00;99.90;;;;;;5152922;27;20018;-68
2023/03/22 00:14:19;;;;;;;2.72;1.77;;;9.00;99.90;;;;;;5135250;27;20027;-68
2023/03/22 00:16:48;;;;;;;2.15;1.92;;;9.00;99.90;;;;;;5152416;27;20087;-67
2023/03/22 00:19:14;;;;;;;1.73;1.58;;;9.00;99.90;;;;;;5132892;27;20069;-68
2023/03/22 00:21:40;;;;;;;3.95;1.95;;;8.90;99.90;;;;;;5132125;27;20438;-68
2023/03/22 00:24:06;;;;;;;3.22;1.40;;;8.90;99.90;;;;;;5131875;27;20099;-68
2023/03/22 00:26:31;;;;;;;4.25;1.63;;;8.90;99.90;;;;;;5147394;27;20377;-68
2023/03/22 00:28:57;;;;;;;3.25;1.65;;;8.90;99.90;;;;;;5136762;27;20102;-68
2023/03/22 00:31:22;;;;;;;3.17;2.00;;;8.90;99.90;;;;;;5132147;27;20034;-68
2023/03/22 00:33:48;;;;;;;2.33;2.00;;;8.90;99.90;;;;;;5132077;27;20023;-67
2023/03/22 00:36:14;;;;;;;2.95;1.63;;;9.00;99.90;;;;;;5132240;27;20357;-68
2023/03/22 00:38:40;;;;;;;2.58;1.52;;;9.00;99.90;;;;;;5132520;27;20024;-68
2023/03/22 00:41:22;;;;;;;3.97;2.28;;;9.00;99.90;;;;;;5133837;27;20728;-68
2023/03/22 00:43:49;;;;;;;2.75;2.05;;;9.10;99.90;;;;;;5151024;27;20031;-67
2023/03/22 00:46:16;;;;;;;3.47;1.73;;;9.10;99.90;;;;;;5139161;27;20046;-68
2023/03/22 00:48:42;;;;;;;5.13;1.80;;;9.20;99.90;;;;;;5137588;27;20027;-68
2023/03/22 00:51:08;;;;;;;2.65;1.52;;;9.20;99.90;;;;;;5137441;27;20681;-68
2023/03/22 00:53:35;;;;;;;2.65;2.10;;;9.30;99.90;;;;;;5136752;27;20027;-68
2023/03/22 00:56:02;;;;;;;3.25;2.30;;;9.30;99.90;;;;;;5136108;27;20511;-68
2023/03/22 00:58:28;;;;;;;3.30;2.17;;;9.30;99.90;;;;;;5139816;27;20030;-68
2023/03/22 01:00:53;;;;;;;5.03;2.10;;;9.30;99.90;;;;;;5132198;27;20030;-68
2023/03/22 01:03:20;;;;;;;6.53;2.00;;;9.30;99.90;;;;;;5143238;27;20023;-68
2023/03/22 01:05:48;;;;;;;4.55;2.17;;;9.20;99.90;;;;;;5139207;27;20038;-67
2023/03/22 01:08:15;;;;;;;2.63;1.55;;;9.20;99.90;;;;;;5135783;27;20023;-68
2023/03/22 01:10:42;;;;;;;3.03;1.50;;;9.20;99.90;;;;;;5151821;27;20058;-68
2023/03/22 01:13:10;;;;;;;3.47;1.88;;;9.20;99.90;;;;;;5145540;27;20019;-68
2023/03/22 01:15:36;;;;;;;2.50;1.98;;;9.20;99.90;;;;;;5155738;27;20530;-68
2023/03/22 01:18:02;;;;;;;2.78;2.00;;;9.30;99.90;;;;;;5172833;27;20030;-68
2023/03/22 01:20:28;;;;;;;2.95;1.90;;;9.30;99.90;;;;;;5173387;27;20034;-68
2023/03/22 01:22:53;;;;;;;2.75;1.52;;;9.30;99.90;;;;;;5172618;27;20098;-68
2023/03/22 01:25:19;;;;;;;1.75;1.33;;;9.20;99.90;;;;;;5159967;27;20446;-68
2023/03/22 01:27:45;;;;;;;4.32;1.50;;;9.10;99.90;;;;;;5131976;27;20106;-67
2023/03/22 01:30:11;;;;;;;4.13;1.75;;;9.00;99.90;;;;;;5131283;28;20031;-68
2023/03/22 01:32:37;;;;;;;2.42;1.60;;;8.90;99.90;;;;;;5142856;27;20094;-68
2023/03/22 01:35:06;;;;;;;2.03;1.48;;;8.80;99.90;;;;;;5151551;27;20106;-68
2023/03/22 01:37:32;;;;;;;2.50;1.55;;;8.60;99.90;;;;;;5152725;27;20030;-68
2023/03/22 01:39:58;;;;;;;2.38;1.90;;;8.50;99.90;;;;;;5152526;27;20091;-68
2023/03/22 01:42:25;;;;;;;2.15;1.50;;;8.30;99.90;;;;;;5152045;27;20023;-68
2023/03/22 01:45:12;;;;;;;3.22;2.08;;;8.20;99.90;;;;;;5155244;27;20384;-68
2023/03/22 01:47:53;;;;;;;2.33;1.80;;;8.10;99.90;;;;;;5155065;27;20099;-68
2023/03/22 01:50:20;;;;;;;2.92;1.83;;;8.00;99.90;;;;;;5156102;27;20099;-68
2023/03/22 01:52:48;;;;;;;1.80;1.70;;;7.90;99.90;;;;;;5156411;27;20027;-67
2023/03/22 01:55:17;;;;;;;4.65;1.65;;;7.80;99.90;;;;;;5156209;27;20023;-68
2023/03/22 01:57:43;;;;;;;2.63;1.60;;;7.70;99.90;;;;;;5156345;27;20031;-68
2023/03/22 02:00:14;;;;;;;2.50;2.10;;;7.60;99.90;;;;;;5155400;27;20137;-68
2023/03/22 02:02:41;;;;;;;4.30;2.42;;;7.60;99.90;;;;;;5142762;27;20438;-68
2023/03/22 02:05:07;;;;;;;2.92;2.33;;;7.50;99.90;;;;;;5143447;27;20213;-68
2023/03/22 02:07:36;;;;;;;4.65;2.20;;;7.40;99.90;;;;;;5156067;27;20027;-69
2023/03/22 02:10:01;;;;;;;4.93;2.40;;;7.40;99.90;;;;;;5155006;27;20457;-68
2023/03/22 02:12:30;;;;;;;3.40;2.40;;;7.40;99.90;;;;;;5156263;27;20027;-68
2023/03/22 02:15:11;;;;;;;2.85;2.30;;;7.30;99.90;;;;;;5155032;27;20029;-68
2023/03/22 02:17:58;;;;;;;4.20;2.50;;;7.30;99.90;;;;;;5155424;27;20114;-68
2023/03/22 02:20:57;;;;;;;4.65;2.70;;;7.20;99.90;;;;;;5154910;27;20109;-68
2023/03/22 02:23:56;;;;;;;4.28;2.28;;;7.20;99.90;;;;;;5138317;27;20032;-68
2023/03/22 02:26:45;;;;;;;2.45;2.15;;;7.30;99.90;;;;;;5134197;27;20027;-69
2023/03/22 02:29:38;;;;;;;4.68;2.50;;;7.30;99.90;;;;;;5120954;27;20061;-68
2023/03/22 02:32:37;;;;;;;6.28;2.60;;;7.40;99.90;;;;;;5114651;27;20897;-68
2023/03/22 02:35:25;;;;;;;4.78;2.45;;;7.50;99.90;;;;;;5133115;27;20030;-68
2023/03/22 02:38:08;;;;;;;3.15;2.33;;;7.60;99.90;;;;;;5137580;27;20476;-68
2023/03/22 02:40:57;;;;;;;5.78;2.30;;;7.70;99.90;;;;;;5134014;27;20027;-68
2023/03/22 02:43:29;;;;;;;5.35;2.10;;;7.60;99.90;;;;;;5135194;27;20046;-67
2023/03/22 02:46:08;;;;;;;3.97;2.45;;;7.60;99.90;;;;;;5153987;27;20046;-68
2023/03/22 02:48:49;;;;;;;4.00;2.42;;;7.60;99.90;;;;;;5155684;27;20031;-69
2023/03/22 02:51:28;;;;;;;4.07;2.67;;;7.60;99.90;;;;;;5154184;27;20038;-68
2023/03/22 02:54:01;;;;;;;3.08;2.63;;;7.50;99.90;;;;;;5154067;27;20488;-67
2023/03/22 02:56:38;;;;;;;3.20;2.22;;;7.50;99.90;;;;;;5134071;27;20035;-69
2023/03/22 02:59:07;;;;;;;3.38;2.30;;;7.40;99.90;;;;;;5133724;27;20039;-68
2023/03/22 03:01:42;;;;;;;3.38;2.22;;;7.30;99.90;;;;;;5134281;27;20051;-69
2023/03/22 03:04:13;;;;;;;2.35;2.15;;;7.20;99.90;;;;;;5133423;27;20027;-68
2023/03/22 03:06:44;;;;;;;4.03;2.88;;;7.10;99.90;;;;;;5115482;27;20354;-66
2023/03/22 03:09:16;;;;;;;3.15;2.33;;;7.00;99.90;;;;;;5135035;27;20038;-67
2023/03/22 03:11:45;;;;;;;3.13;2.53;;;6.90;99.90;;;;;;5138712;27;20023;-70
2023/03/22 03:14:26;;;;;;;3.35;2.58;;;6.90;99.90;;;;;;5151749;27;20483;-69
2023/03/22 03:17:21;;;;;;;5.95;2.40;;;6.80;99.90;;;;;;5138221;27;20102;-69
2023/03/22 03:20:11;;;;;;;5.93;3.08;;;6.80;99.90;;;;;;5153524;27;20481;-66
2023/03/22 03:22:49;;;;;;;4.85;2.45;;;6.80;99.90;;;;;;5134340;27;20030;-69
2023/03/22 03:25:56;;;;;;;4.07;2.53;;;6.80;99.90;;;;;;5133718;27;20027;-68
2023/03/22 03:28:37;;;;;;;7.80;3.15;;;;;;;;;;5107406;27;20481;-69
2023/03/22 03:31:08;;;;;;;3.67;2.60;;;6.70;99.90;;;;;;5153518;27;20026;-68
2023/03/22 03:33:39;;;;;;;3.83;2.83;;;6.60;99.90;;;;;;5142510;27;20019;-68
2023/03/22 03:36:08;;;;;;;;;;;6.60;99.90;;;;;;5133208;27;20218;-68
2023/03/22 03:38:37;;;;;;;4.90;2.90;;;6.60;99.90;;;;;;5133140;27;20032;-68
2023/03/22 03:41:07;;;;;;;3.47;2.83;;;6.60;99.90;;;;;;5134572;27;20023;-68
2023/03/22 03:43:34;;;;;;;4.18;2.92;;;6.70;99.90;;;;;;5154276;27;20106;-68
2023/03/22 03:46:00;;;;;;;5.65;2.95;;;6.70;99.90;;;;;;5151494;27;20488;-68
2023/03/22 03:48:31;;;;;;;5.50;2.78;;;6.80;99.90;;;;;;5154170;27;20492;-68
2023/03/22 03:50:59;;;;;;;4.43;2.95;;;6.80;99.90;;;;;;5153255;27;20026;-68
2023/03/22 03:53:25;;;;;;;6.75;3.28;;;6.80;99.90;;;;;;5154089;27;20457;-69
2023/03/22 03:55:51;;;;;;;6.95;3.38;;;6.80;99.90;;;;;;5152591;27;20027;-68
2023/03/22 03:58:16;;;;;;;3.08;2.20;;;6.70;99.90;;;;;;5153959;27;20118;-69
2023/03/22 04:00:45;;;;;;;4.60;2.78;;;6.80;99.90;;;;;;5151939;27;20030;-69
2023/03/22 04:03:11;;;;;;;4.85;2.83;;;6.80;99.90;;;;;;5153332;27;20031;-68
2023/03/22 04:05:36;;;;;;;3.42;2.60;;;6.90;99.90;;;;;;5153434;27;20052;-68
2023/03/22 04:08:02;;;;;;;6.32;2.47;;;7.10;99.90;;;;;;5153230;27;20026;-68
2023/03/22 04:10:28;;;;;;;4.45;2.92;;;7.30;99.90;;;;;;5138093;27;20330;-68
2023/03/22 04:12:54;;;;;;;4.88;2.67;;;7.40;99.90;;;;;;5132291;27;20027;-68
2023/03/22 04:15:19;;;;;;;4.15;2.60;;;7.50;99.90;;;;;;5132475;27;20098;-69
2023/03/22 04:17:45;;;;;;;8.15;2.50;;;7.60;99.90;;;;;;5131191;27;20061;-68
2023/03/22 04:20:12;;;;;;;3.20;2.15;;;7.60;99.90;;;;;;5131354;27;20038;-68
2023/03/22 04:22:39;;;;;;;6.38;2.65;;;7.60;99.90;;;;;;5132485;27;20038;-68
2023/03/22 04:25:10;;;;;;;4.22;2.60;;;7.60;99.90;;;;;;5138369;27;20065;-70
2023/03/22 04:27:37;;;;;;;2.70;2.08;;;7.60;99.90;;;;;;5132358;27;20023;-68
2023/03/22 04:30:04;;;;;;;3.33;2.30;;;7.60;99.90;;;;;;5146437;27;20067;-68
2023/03/22 04:32:29;;;;;;;3.50;2.22;;;7.70;99.90;;;;;;5153460;27;20038;-67
2023/03/22 04:34:55;;;;;;;6.20;2.97;;;7.60;99.90;;;;;;5133458;27;20469;-68
2023/03/22 04:37:25;;;;;;;4.63;2.10;;;7.60;99.90;;;;;;5132839;27;20054;-70
2023/03/22 04:39:52;;;;;;;6.03;2.60;;;7.60;99.90;;;;;;5131214;27;20027;-68
2023/03/22 04:42:18;;;;;;;4.65;2.20;;;7.70;99.90;;;;;;5132147;27;20035;-70
2023/03/22 04:44:44;;;;;;;3.42;2.15;;;7.80;99.90;;;;;;5144831;27;20365;-67
2023/03/22 04:47:10;;;;;;;5.65;2.03;;;7.90;99.90;;;;;;5151965;27;20055;-69
2023/03/22 04:49:35;;;;;;;3.28;2.13;;;8.00;99.90;;;;;;5152045;27;20140;-68
2023/03/22 04:52:02;;;;;;;2.88;2.13;;;8.00;99.90;;;;;;5152037;27;20023;-69
2023/03/22 04:54:28;;;;;;;3.00;2.40;;;8.10;99.90;;;;;;5153606;27;20046;-69
2023/03/22 04:56:53;;;;;;;4.50;2.30;;;8.20;99.90;;;;;;5151985;27;20065;-66
2023/03/22 04:59:19;;;;;;;2.35;2.10;;;8.20;99.90;;;;;;5151146;27;20030;-69
2023/03/22 05:01:49;;;;;;;5.65;2.92;;;8.20;99.90;;;;;;5140700;27;20026;-67
2023/03/22 05:04:16;;;;;;;7.82;2.53;;;8.10;99.90;;;;;;5142488;27;20034;-68
2023/03/22 05:06:42;;;;;;;5.30;2.75;;;8.10;99.90;;;;;;5140642;27;20083;-68
2023/03/22 05:09:08;;;;;;;5.13;2.20;;;8.10;99.90;;;;;;5132758;27;20061;-68
2023/03/22 05:11:34;;;;;;;4.47;2.55;;;8.20;99.90;;;;;;5139652;27;20019;-68
2023/03/22 05:13:59;;;;;;;5.53;2.38;;;8.20;99.90;;;;;;5137363;27;20447;-67
2023/03/22 05:16:25;;;;;;;6.40;2.67;;;8.20;99.90;;;;;;5146542;27;20474;-68
2023/03/22 05:18:53;;;;;;;3.72;2.40;;;8.20;99.90;;;;;;5145073;27;20117;-67
2023/03/22 05:21:27;;;;;;;4.35;2.42;;;8.20;99.90;;;;;;5146058;27;20493;-66
2023/03/22 05:23:53;;;;;;;4.38;2.30;;;8.30;99.90;;;;;;5145868;27;20149;-67
2023/03/22 05:26:23;;;;;;;5.70;2.28;;;8.30;99.90;;;;;;5124846;27;20058;-68
2023/03/22 05:28:50;;;;;;;4.18;2.50;;;8.40;99.90;;;;;;5132858;27;20491;-66
2023/03/22 05:31:16;;;;;;;6.88;3.58;;;8.50;99.90;;;;;;5141168;27;20050;-68
2023/03/22 05:33:42;;;;;;;5.50;2.65;;;8.50;99.90;;;;;;5144564;27;20397;-68
2023/03/22 05:36:10;;;;;;;9.25;2.53;;;8.50;99.90;;;;;;5142091;27;20035;-68
2023/03/22 05:38:36;;;;;;;4.13;2.35;;;8.50;99.90;;;;;;5143454;27;20035;-69
2023/03/22 05:41:02;;;;;;;3.50;2.40;;;8.50;99.90;;;;;;5150815;27;20022;-68
2023/03/22 05:43:28;;;;;;;7.50;2.70;;;8.60;99.90;;;;;;5143523;27;20341;-67
2023/03/22 05:45:53;;;;;;;5.57;2.30;;;8.60;99.90;;;;;;5138600;27;20232;-67
2023/03/22 05:48:19;;;;;;;4.10;2.30;;;8.60;99.90;;;;;;5144739;27;20030;-67
2023/03/22 05:50:45;;;;;;;4.65;2.42;;;8.60;99.90;;;;;;5148441;27;20030;-66
2023/03/22 05:53:10;;;;;;;5.85;2.10;;;8.60;99.90;;;;;;5140504;27;20055;-68
2023/03/22 05:55:36;;;;;;;5.35;2.45;;;8.60;99.90;;;;;;5135283;27;20031;-68
2023/03/22 05:58:03;;;;;;;2.42;1.88;;;8.60;99.90;;;;;;5140789;27;20469;-72
2023/03/22 06:00:34;;;;;;;6.38;2.25;;;8.50;99.90;;;;;;5145063;27;20033;-68
2023/03/22 06:03:02;;;;;;;6.30;2.15;;;8.50;99.90;;;;;;5157143;27;20027;-69
2023/03/22 06:05:30;;;;;;;6.80;1.70;;;8.60;99.90;;;;;;5143939;27;20512;-70
2023/03/22 06:07:56;;;;;;;8.45;2.90;;;8.60;99.90;;;;;;5134468;27;20110;-67
2023/03/22 06:10:23;;;;;;;3.33;2.15;;;8.60;99.90;;;;;;5134886;27;20059;-67
2023/03/22 06:12:49;;;;;;;8.75;3.92;;;8.60;99.90;;;;;;5155542;27;20045;-66
2023/03/22 06:15:15;;;;;;;9.10;4.00;;;8.60;99.90;;;;;;5154272;27;20402;-68
2023/03/22 06:17:41;;;;;;;5.45;2.60;;;8.60;99.90;;;;;;5136704;27;20110;-70
2023/03/22 06:20:10;;;;;;;5.43;2.97;;;8.60;99.90;;;;;;5134100;27;20023;-69
2023/03/22 06:22:36;;;;;;;9.85;4.90;;;8.60;99.90;;;;;;5134977;27;20369;-71
2023/03/22 06:25:03;;;;;;;7.25;4.70;;;8.50;99.90;;;;;;5133525;27;20377;-69
2023/03/22 06:27:29;;;;;;;10.88;5.25;;;8.50;99.90;;;;;;5133672;27;20038;-69
2023/03/22 06:29:54;;;;;;;11.13;5.18;;;8.50;99.90;;;;;;5153255;27;20057;-68
2023/03/22 06:32:22;;;;;;;14.90;5.75;;;8.40;99.90;;;;;;5149960;27;20058;-69
2023/03/22 06:34:49;;;;;;;10.57;5.50;;;8.40;99.90;;;;;;5154968;27;20027;-68
2023/03/22 06:37:15;;;;;;;12.05;6.05;;;8.30;99.90;;;;;;5146218;27;20058;-68
2023/03/22 06:39:41;;;;;;;7.22;5.13;;;8.40;99.90;;;;;;5146433;27;20066;-68
2023/03/22 06:42:06;;;;;;;11.00;5.30;;;8.40;99.90;;;;;;5144141;27;20631;-68
2023/03/22 06:44:32;;;;;;;8.88;3.25;;;8.40;99.90;;;;;;5155451;27;20454;-68
2023/03/22 06:46:58;;;;;;;5.68;2.63;;;8.50;99.90;;;;;;5153612;27;20074;-68
2023/03/22 06:49:23;;;;;;;8.35;3.72;;;8.60;99.90;;;;;;5154149;27;20062;-68
2023/03/22 06:51:49;;;;;;;8.93;4.00;;;8.70;99.90;;;;;;5153957;27;20464;-67
2023/03/22 06:54:15;;;;;;;9.90;3.00;;;8.90;99.90;;;;;;5155934;27;20410;-68
2023/03/22 06:56:41;;;;;;;6.35;2.67;;;9.10;99.90;;;;;;5152695;27;20118;-70
2023/03/22 06:59:07;;;;;;;8.32;2.90;;;9.20;99.90;;;;;;5137040;27;20098;-73
2023/03/22 07:01:32;;;;;;;5.10;2.50;;;9.40;99.90;;;;;;5151213;27;20029;-68
2023/03/22 07:03:58;;;;;;;6.28;2.55;;;9.60;99.90;;;;;;5146739;27;20030;-68
2023/03/22 07:06:24;;;;;;;3.90;2.10;;;9.80;99.90;;;;;;5154321;27;20026;-67
2023/03/22 07:08:49;;;;;;;5.47;2.08;;;9.90;99.90;;;;;;5153746;27;20034;-67
2023/03/22 07:11:15;;;;;;;5.05;1.73;;;10.10;99.90;;;;;;5153827;27;20098;-67
2023/03/22 07:13:41;;;;;;;1.98;1.27;;;10.20;99.90;;;;;;5145873;27;20035;-68
2023/03/22 07:16:07;;;;;;;3.70;1.90;;;10.40;99.90;;;;;;5147031;27;20023;-67
2023/03/22 07:18:32;;;;;;;4.18;1.50;;;10.50;99.90;;;;;;5154480;27;20493;-67
2023/03/22 07:20:58;;;;;;;2.20;1.45;;;10.60;99.90;;;;;;5151660;27;20019;-67
2023/03/22 07:23:24;;;;;;;3.95;1.90;;;10.80;99.90;;;;;;5146659;27;20050;-68
2023/03/22 07:25:50;;;;;;;2.58;1.42;;;10.80;99.90;;;;;;5131025;27;20110;-67
2023/03/22 07:28:16;;;;;;;3.85;1.90;;;10.90;99.90;;;;;;5150391;27;20042;-67
2023/03/22 07:30:42;;;;;;;6.60;1.75;;;11.10;99.90;;;;;;5153330;27;20019;-67
2023/03/22 07:33:09;;;;;;;3.17;1.63;;;11.10;99.90;;;;;;5152911;27;20010;-67
2023/03/22 07:35:36;;;;;;;2.50;1.40;;;11.30;99.90;;;;;;5153317;27;20121;-67
2023/03/22 07:38:02;;;;;;;3.15;1.40;;;11.40;99.90;;;;;;5152079;27;20023;-69
2023/03/22 07:40:28;;;;;;;3.60;1.50;;;11.50;99.90;;;;;;5153552;27;20342;-67
2023/03/22 07:42:54;;;;;;;2.55;1.20;;;11.60;99.90;;;;;;5140249;27;20029;-67
2023/03/22 07:45:20;;;;;;;1.35;1.10;;;11.80;99.90;;;;;;5153479;27;20030;-67
2023/03/22 07:47:46;;;;;;;3.38;1.60;;;11.90;99.90;;;;;;5152898;27;20051;-67
2023/03/22 07:50:12;;;;;;;5.35;1.45;;;12.10;99.90;;;;;;5153460;27;20087;-69
2023/03/22 07:52:41;;;;;;;3.25;1.27;;;12.20;99.90;;;;;;5153238;27;20381;-68
2023/03/22 07:55:09;;;;;;;4.50;1.48;;;12.30;99.90;;;;;;5151437;27;20019;-69
2023/03/22 07:57:35;;;;;;;4.53;1.42;;;12.40;99.90;;;;;;5145714;27;20023;-75
2023/03/22 08:00:03;;;;;;;2.03;1.20;;;12.50;99.90;;;;;;5152621;27;20019;-68
2023/03/22 08:02:29;;;;;;;2.03;1.50;;;12.60;99.90;;;;;;5153312;27;20093;-68
2023/03/22 08:04:55;;;;;;;3.42;1.45;;;12.70;99.90;;;;;;5152798;27;20512;-68
2023/03/22 08:07:20;;;;;;;2.78;1.33;;;12.80;99.90;;;;;;5147187;27;20066;-68
2023/03/22 08:09:46;;;;;;;3.50;1.40;;;12.90;99.90;;;;;;5153929;27;20042;-67
2023/03/22 08:12:12;;;;;;;2.30;1.05;;;13.00;99.90;;;;;;5152463;27;20067;-69
2023/03/22 08:14:38;;;;;;;3.05;1.40;;;13.00;99.90;;;;;;5154118;27;20019;-69
2023/03/22 08:17:04;;;;;;;3.10;1.38;;;13.10;99.90;;;;;;5148033;27;20069;-67
2023/03/22 08:19:31;;;;;;;3.35;1.35;;;13.10;99.90;;;;;;5138568;27;20075;-69
2023/03/22 08:21:58;;;;;;;3.88;1.60;;;13.20;99.90;;;;;;5152080;27;20044;-68
2023/03/22 08:24:25;;;;;;;4.50;1.50;;;13.30;99.90;;;;;;5151897;27;20019;-68
2023/03/22 08:26:51;;;;;;;3.85;1.70;;;13.30;99.90;;;;;;5145373;27;20031;-69
2023/03/22 08:29:17;;;;;;;3.90;1.45;;;13.40;99.90;;;;;;5141541;27;20031;-70
2023/03/22 08:31:43;;;;;;;4.28;2.00;;;13.40;99.90;;;;;;5139436;27;20038;-71
2023/03/22 08:34:09;;;;;;;2.03;1.52;;;13.50;99.90;;;;;;5138287;27;20386;-68
2023/03/22 08:36:36;;;;;;;2.15;1.42;;;13.60;99.90;;;;;;5146279;27;20052;-68
2023/03/22 08:39:03;;;;;;;2.72;1.88;;;13.70;99.90;;;;;;5152247;27;20034;-68
2023/03/22 08:41:29;;;;;;;2.28;1.45;;;13.70;99.90;;;;;;5147659;27;20034;-68
2023/03/22 08:43:55;;;;;;;1.85;1.30;;;13.80;99.90;;;;;;5147850;27;20038;-68
2023/03/22 08:46:20;;;;;;;0.98;0.88;;;13.90;99.90;;;;;;5150412;27;20054;-68
2023/03/22 08:48:49;;;;;;;2.97;1.30;;;13.90;99.90;;;;;;5136951;27;20023;-67
2023/03/22 08:51:20;;;;;;;3.25;1.20;;;14.00;99.90;;;;;;5139253;27;20054;-68
2023/03/22 08:53:46;;;;;;;2.72;1.15;;;14.10;99.90;;;;;;5139292;27;20023;-68
2023/03/22 08:56:23;;;;;;;2.17;0.90;;;14.20;99.90;;;;;;5141374;27;20027;-69
2023/03/22 08:58:49;;;;;;;4.47;1.08;;;14.30;99.90;;;;;;5149108;27;20095;-68
2023/03/22 09:01:16;;;;;;;9.77;1.58;;;14.30;99.90;;;;;;5147330;27;20030;-68
2023/03/22 09:03:42;;;;;;;5.50;0.90;;;14.40;99.90;;;;;;5148340;27;20414;-69
2023/03/22 09:06:11;;;;;;;2.70;1.42;;;14.50;99.90;;;;;;5150153;27;20038;-69
2023/03/22 09:08:37;;;;;;;3.80;1.50;;;14.50;99.90;;;;;;5142453;27;20049;-68
2023/03/22 09:11:03;;;;;;;6.00;1.70;;;14.60;99.90;;;;;;5139946;27;20461;-68
2023/03/22 09:13:31;;;;;;;5.50;1.92;;;14.70;99.90;;;;;;5149352;27;20023;-68
2023/03/22 09:15:57;;;;;;;0.93;0.75;;;14.70;99.90;;;;;;5135322;27;20143;-68
2023/03/22 09:18:24;;;;;;;2.47;0.60;;;14.90;99.90;;;;;;5140525;27;20105;-68
2023/03/22 09:20:50;;;;;;;4.20;1.00;;;14.90;99.90;;;;;;5141873;27;20027;-67
2023/03/22 09:23:16;;;;;;;3.13;0.80;;;15.10;99.90;;;;;;5132331;27;20031;-68
2023/03/22 09:25:45;;;;;;;2.58;0.80;;;15.10;99.90;;;;;;5147916;27;20384;-69
2023/03/22 09:28:11;;;;;;;3.10;0.88;;;15.20;99.90;;;;;;5150682;27;20018;-69
2023/03/22 09:30:37;;;;;;;1.42;1.05;;;15.40;99.90;;;;;;5151434;27;20461;-69
2023/03/22 09:33:03;;;;;;;2.63;0.90;;;15.50;99.30;;;;;;5150594;27;20376;-69
2023/03/22 09:35:29;;;;;;;1.25;0.75;;;15.50;99.30;;;;;;5139613;27;20086;-69
2023/03/22 09:37:57;;;;;;;1.95;1.20;;;15.50;99.40;;;;;;5147207;27;20163;-69
2023/03/22 09:40:29;;;;;;;0.80;0.73;;;15.60;99.00;;;;;;5146597;27;20031;-69
2023/03/22 09:42:58;;;;;;;5.63;1.15;;;15.70;98.70;;;;;;5149605;27;20407;-68
2023/03/22 09:45:38;;;;;;;5.32;1.00;;;15.80;98.30;;;;;;5151013;27;20476;-69
2023/03/22 09:48:10;;;;;;;3.42;1.05;;;15.90;97.90;;;;;;5150903;27;20496;-68
2023/03/22 09:50:43;;;;;;;2.83;0.73;;;16.10;97.60;;;;;;5142465;27;20027;-68
2023/03/22 09:53:13;;;;;;;3.45;0.95;;;16.10;97.10;;;;;;5150583;27;20046;-69
2023/03/22 09:55:55;;;;;;;2.60;0.80;;;16.20;96.90;;;;;;5149556;27;20536;-69
2023/03/22 09:58:43;;;;;;;1.73;1.00;;;16.30;96.50;;;;;;5139893;27;20027;-68
2023/03/22 10:01:19;;;;;;;2.63;1.00;;;16.50;96.20;;;;;;5125573;27;20067;-68
2023/03/22 10:04:20;;;;;;;1.88;0.82;;;16.60;96.00;;;;;;5148517;27;20033;-68
2023/03/22 10:06:58;;;;;;;2.03;0.95;;;16.80;95.50;;;;;;5135206;27;20072;-67
2023/03/22 10:09:58;;;;;;;3.50;0.85;;;16.90;95.30;;;;;;5154066;27;20034;-69
2023/03/22 10:12:32;;;;;;;3.05;0.82;;;17.10;94.90;;;;;;5149105;27;20062;-69
2023/03/22 10:15:29;;;;;;;3.17;0.85;;;17.20;94.30;;;;;;5153167;27;20030;-68
2023/03/22 10:17:57;;;;;;;2.50;0.95;;;17.20;94.00;;;;;;5151996;27;20038;-68
2023/03/22 10:20:31;;;;;;;2.85;0.68;;;17.30;93.90;;;;;;5128418;27;20033;-68
2023/03/22 10:23:00;;;;;;;16.02;1.38;;;17.20;93.90;;;;;;5147432;27;20027;-68
2023/03/22 10:25:40;;;;;;;8.35;1.65;;;17.20;94.20;;;;;;5143689;27;20034;-68
2023/03/22 10:28:29;;;;;;;2.60;0.80;;;17.10;94.10;;;;;;5149752;27;20614;-68
2023/03/22 10:30:57;;;;;;;16.65;1.63;;;16.90;94.30;;;;;;5132177;27;20046;-68
2023/03/22 10:33:40;;;;;;;8.18;1.30;;;16.80;94.50;;;;;;5145597;27;20102;-68
2023/03/22 10:36:12;;;;;;;5.35;1.20;;;16.80;94.30;;;;;;5152007;27;20019;-68
2023/03/22 10:38:44;;;;;;;1.17;0.73;;;16.80;94.50;;;;;;5148026;27;20121;-68
2023/03/22 10:41:14;;;;;;;6.60;1.08;;;16.90;94.00;;;;;;5151268;27;20031;-68
2023/03/22 10:43:41;;;;;;;1.90;0.88;;;17.00;93.90;;;;;;5149806;27;20354;-68
2023/03/22 10:46:14;;;;;;;6.97;0.93;;;17.20;94.10;;;;;;5145211;27;20042;-68
2023/03/22 10:48:49;;;;;;;1.58;0.73;;;17.50;93.60;;;;;;5153938;27;20495;-69
2023/03/22 10:51:39;;;;;;;2.25;1.08;;;17.70;93.50;;;;;;5150575;27;20030;-68
2023/03/22 10:54:10;;;;;;;;;;;18.10;93.20;;;;;;5151878;27;20135;-68
2023/03/22 10:56:35;;;;;;;3.67;0.90;;;18.30;92.90;;;;;;5143502;27;19968;-68
2023/03/22 10:59:01;;;;;;;3.25;0.90;;;18.70;92.90;;;;;;5142526;27;20114;-69
2023/03/22 11:01:30;;;;;;;0.93;0.77;;;18.80;91.50;;;;;;5149018;27;20585;-69
2023/03/22 11:04:04;;;;;;;2.57;1.10;;;19.00;91.10;;;;;;5152113;27;20027;-68
2023/03/22 11:06:33;;;;;;;7.35;1.05;;;19.30;90.70;;;;;;5153023;27;20365;-68
2023/03/22 11:09:07;;;;;;;3.63;0.88;;;19.30;90.50;;;;;;5137261;27;20027;-69
2023/03/22 11:11:57;;;;;;;2.85;0.85;;;19.50;90.60;;;;;;5152096;27;20023;-69
2023/03/22 11:14:34;;;;;;;5.50;0.90;;;19.60;89.40;;;;;;5116271;27;20095;-70
2023/03/22 11:17:05;;;;;;;1.80;0.70;;;19.60;88.30;;;;;;5141947;27;20041;-68
2023/03/22 11:19:40;;;;;;;1.58;0.68;;;19.70;88.50;;;;;;5153576;27;20396;-69
2023/03/22 11:22:26;;;;;;;1.15;0.63;;;19.80;85.80;;;;;;5152212;27;20034;-68
2023/03/22 11:24:52;;;;;;;2.47;0.82;;;;;;;;;;5150806;27;20374;-68
2023/03/22 11:27:23;;;;;;;2.55;0.90;;;;;;;;;;5149681;27;20437;-69
2023/03/22 11:29:50;;;;;;;2.67;0.60;;;;;;;;;;5153448;27;20027;-68
2023/03/22 11:32:28;;;;;;;0.88;0.88;;;19.80;85.00;;;;;;5153388;27;20023;-69
2023/03/22 11:35:14;;;;;;;2.60;0.60;;;20.20;81.50;;;;;;5152680;27;20031;-68
2023/03/22 11:37:45;;;;;;;1.20;0.73;;;20.30;81.20;;;;;;5148882;27;20122;-69
2023/03/22 11:40:31;;;;;;;2.70;0.75;;;20.40;81.50;;;;;;5152538;27;20062;-68
2023/03/22 11:43:09;;;;;;;3.03;0.82;;;20.60;76.10;;;;;;5116150;27;20027;-69
2023/03/22 11:45:39;;;;;;;1.52;0.80;;;20.90;73.60;;;;;;5151866;27;20031;-67
2023/03/22 11:48:08;;;;;;;0.80;0.47;;;21.10;72.30;;;;;;5150628;27;20038;-67
2023/03/22 11:50:37;;;;;;;6.30;0.77;;;21.40;71.50;;;;;;5153420;27;20560;-69
2023/03/22 11:53:10;;;;;;;0.93;0.90;;;21.60;69.50;;;;;;5147385;27;20039;-68
2023/03/22 11:55:35;;;;;;;2.80;0.90;;;21.80;69.90;;;;;;5134761;27;20110;-70
2023/03/22 11:58:03;;;;;;;0.50;0.45;;;22.00;68.70;;;;;;5148650;27;20434;-69
2023/03/22 12:00:36;;;;;;;3.97;0.80;;;22.10;67.90;;;;;;5151316;27;20027;-69
2023/03/22 12:03:15;;;;;;;2.50;0.70;;;22.20;67.50;;;;;;5153119;27;20065;-69
2023/03/22 12:05:43;;;;;;;4.47;1.00;;;22.10;67.10;;;;;;5145279;27;20034;-69
2023/03/22 12:08:27;;;;;;;1.33;0.70;;;22.10;65.10;;;;;;5152035;27;20076;-68
2023/03/22 12:11:02;;;;;;;1.55;0.63;;;22.00;64.90;;;;;;5143407;27;20033;-70
2023/03/22 12:13:47;;;;;;;0.65;0.65;;;21.80;65.40;;;;;;5153569;27;20023;-69
2023/03/22 12:16:17;;;;;;;0.70;0.70;;;22.00;65.70;;;;;;5152359;27;20054;-69
2023/03/22 12:19:09;;;;;;;1.27;0.80;;;22.20;66.10;;;;;;5150854;27;20057;-69
2023/03/22 12:21:35;;;;;;;2.92;0.75;;;22.50;75.50;;;;;;5125633;27;20058;-69
2023/03/22 12:24:03;;;;;;;1.20;0.60;;;22.60;75.00;;;;;;5146009;27;20381;-68
2023/03/22 12:26:31;;;;;;;1.35;0.63;;;22.40;75.00;;;;;;5148632;27;20110;-68
2023/03/22 12:29:11;;;;;;;1.48;0.80;;;22.20;74.70;;;;;;5152570;27;20054;-69
2023/03/22 12:31:43;;;;;;;1.13;0.60;;;22.10;73.90;;;;;;5152652;27;20097;-68
2023/03/22 12:34:16;;;;;;;2.33;0.70;;;21.90;74.80;;;;;;5148298;27;20023;-69
2023/03/22 12:36:53;;;;;;;0.68;0.60;;;21.80;74.90;;;;;;5152698;27;20033;-69
2023/03/22 12:39:30;;;;;;;0.50;0.50;;;21.90;74.30;;;;;;5148813;27;20145;-70
2023/03/22 12:42:02;;;;;;;1.95;0.77;;;21.90;74.20;;;;;;5144321;27;20389;-69
2023/03/22 12:44:43;;;;;;;1.63;0.70;;;22.30;73.80;;;;;;5147687;27;20073;-68
2023/03/22 12:47:22;;;;;;;1.30;0.60;;;;;;;;;;5146002;27;20046;-68
2023/03/22 12:49:48;;;;;;;0.93;0.82;;;;;;;;;;5148943;27;20051;-67
2023/03/22 12:52:19;;;;;;;1.98;0.70;;;;;;;;;;5148843;27;20051;-69
2023/03/22 12:54:46;;;;;;;0.93;0.60;;;;;;;;;;5143885;27;20102;-69
2023/03/22 12:57:13;;;;;;;3.35;0.60;;;;;;;;;;5145836;27;20031;-69
2023/03/22 12:59:42;;;;;;;1.27;0.68;;;;;;;;;;5153002;27;20027;-70
2023/03/22 13:02:13;;;;;;;0.95;0.60;;;;;;;;;;5148526;27;20047;-69
2023/03/22 13:04:42;;;;;;;0.90;0.55;;;;;;;;;;5151815;27;20384;-68
2023/03/22 13:07:14;;;;;;;0.60;0.60;;;;;;;;;;5146405;27;20196;-68
2023/03/22 13:09:43;;;;;;;1.25;0.40;;;;;;;;;;5150170;27;20499;-68
2023/03/22 13:12:16;;;;;;;1.13;0.82;;;;;;;;;;5145891;27;20043;-70
2023/03/22 13:14:57;;;;;;;1.00;0.80;;;;;;;;;;5150571;27;20095;-70